Time;durP1;ratioP1;P1;durP2;ratioP2;P2;SDS_P1;SDS_P2;PMS_P1;PMS_P2;Temp;Humidity;BMP_temperature;BMP_pressure;BME280_temperature;BME280_humidity;BME280_pressure;Samples;Min_cycle;Max_cycle;Signal;HPM_P1;HPM_P2
2022/03/16 00:02:20;;;;;;;51.28;30.20;;;4.80;99.90;;;;;;4996930;28;20041;-73
2022/03/16 00:04:50;;;;;;;54.17;30.75;;;4.80;99.90;;;;;;4960089;28;20042;-71
2022/03/16 00:07:16;;;;;;;55.45;33.03;;;4.80;99.90;;;;;;4963654;28;20035;-70
2022/03/16 00:09:43;;;;;;;57.78;33.60;;;4.70;99.90;;;;;;4963135;28;20038;-71
2022/03/16 00:12:10;;;;;;;64.65;35.20;;;4.70;99.90;;;;;;4978596;28;20078;-71
2022/03/16 00:14:39;;;;;;;61.10;34.35;;;4.70;99.90;;;;;;4979692;28;20043;-70
2022/03/16 00:17:07;;;;;;;55.22;33.03;;;4.80;99.90;;;;;;4976375;28;20057;-71
2022/03/16 00:19:34;;;;;;;54.88;33.20;;;4.70;99.90;;;;;;4978639;28;20045;-72
2022/03/16 00:22:02;;;;;;;61.83;33.00;;;4.70;99.90;;;;;;4978113;28;20067;-71
2022/03/16 00:24:27;;;;;;;54.83;33.22;;;4.70;99.90;;;;;;4976750;29;20043;-73
2022/03/16 00:26:53;;;;;;;57.15;31.85;;;4.60;99.90;;;;;;4943826;29;20046;-72
2022/03/16 00:29:19;;;;;;;55.60;33.55;;;4.60;99.90;;;;;;4976996;28;20034;-70
2022/03/16 00:31:45;;;;;;;55.75;31.55;;;4.60;99.90;;;;;;4979108;29;20512;-73
2022/03/16 00:34:11;;;;;;;54.88;32.45;;;4.60;99.90;;;;;;4979350;29;20039;-71
2022/03/16 00:36:37;;;;;;;53.70;32.85;;;4.50;99.90;;;;;;4963492;29;20042;-70
2022/03/16 00:39:04;;;;;;;55.03;31.30;;;4.50;99.90;;;;;;4947672;29;20067;-71
2022/03/16 00:41:29;;;;;;;53.08;31.92;;;4.60;99.90;;;;;;4979462;29;20070;-71
2022/03/16 00:43:55;;;;;;;56.97;32.38;;;4.50;99.90;;;;;;4979360;28;20099;-72
2022/03/16 00:46:21;;;;;;;52.33;32.47;;;4.50;99.90;;;;;;4995497;28;20023;-71
2022/03/16 00:48:47;;;;;;;54.08;31.20;;;4.40;99.90;;;;;;4963101;29;20094;-70
2022/03/16 00:51:13;;;;;;;58.72;32.17;;;4.50;99.90;;;;;;4979327;29;20069;-70
2022/03/16 00:53:40;;;;;;;62.97;34.25;;;4.50;99.90;;;;;;4962115;29;20058;-71
2022/03/16 00:56:07;;;;;;;70.32;38.20;;;4.50;99.90;;;;;;4946856;29;20106;-71
2022/03/16 00:58:33;;;;;;;72.63;40.20;;;4.50;99.90;;;;;;4946364;29;20051;-71
2022/03/16 01:00:59;;;;;;;85.22;42.05;;;4.40;99.90;;;;;;4962849;29;20035;-70
2022/03/16 01:03:25;;;;;;;70.35;37.53;;;4.50;99.90;;;;;;4962334;29;20478;-72
2022/03/16 01:05:51;;;;;;;72.50;39.25;;;4.50;99.90;;;;;;4962659;29;20043;-72
2022/03/16 01:08:17;;;;;;;75.65;39.10;;;4.50;99.90;;;;;;4958651;29;20051;-70
2022/03/16 01:10:45;;;;;;;88.72;44.78;;;4.50;99.90;;;;;;4927510;29;20040;-72
2022/03/16 01:13:12;;;;;;;74.63;41.17;;;4.50;99.90;;;;;;4959011;29;20051;-73
2022/03/16 01:15:41;;;;;;;73.80;40.65;;;4.60;99.90;;;;;;4942611;29;20095;-71
2022/03/16 01:18:06;;;;;;;73.57;39.38;;;4.60;99.90;;;;;;4942655;29;20035;-73
2022/03/16 01:20:32;;;;;;;68.75;37.75;;;4.60;99.90;;;;;;4943362;29;20039;-71
2022/03/16 01:22:58;;;;;;;72.88;40.22;;;4.60;99.90;;;;;;4958158;29;20061;-71
2022/03/16 01:25:24;;;;;;;67.82;39.67;;;4.60;99.90;;;;;;4954106;28;20045;-70
2022/03/16 01:27:49;;;;;;;71.78;38.72;;;4.60;99.90;;;;;;4981755;28;20042;-72
2022/03/16 01:30:15;;;;;;;67.30;37.75;;;4.60;99.90;;;;;;4981747;28;20042;-71
2022/03/16 01:32:42;;;;;;;67.63;38.17;;;4.60;99.90;;;;;;4981694;28;20038;-72
2022/03/16 01:35:11;;;;;;;63.25;36.15;;;4.50;99.90;;;;;;4965855;28;20119;-70
2022/03/16 01:37:37;;;;;;;115.95;42.83;;;4.60;99.90;;;;;;4998669;28;20030;-72
2022/03/16 01:40:06;;;;;;;102.80;46.03;;;4.50;99.90;;;;;;4965710;28;20038;-71
2022/03/16 01:42:42;;;;;;;89.25;44.17;;;4.60;99.90;;;;;;4981010;28;20038;-71
2022/03/16 01:45:08;;;;;;;82.15;41.05;;;4.60;99.90;;;;;;4964630;28;20474;-73
2022/03/16 01:47:37;;;;;;;101.40;48.00;;;4.60;99.90;;;;;;4965179;28;20026;-71
2022/03/16 01:50:03;;;;;;;91.88;46.20;;;4.60;99.90;;;;;;4974037;29;20042;-71
2022/03/16 01:52:30;;;;;;;81.82;42.30;;;4.70;99.90;;;;;;4962770;29;20035;-70
2022/03/16 01:54:57;;;;;;;71.43;40.10;;;4.70;99.90;;;;;;4979371;28;20083;-70
2022/03/16 01:57:24;;;;;;;69.78;40.13;;;4.70;99.90;;;;;;4978997;29;20039;-70
2022/03/16 01:59:50;;;;;;;67.50;37.17;;;4.60;99.90;;;;;;4962397;29;20102;-70
2022/03/16 02:02:16;;;;;;;64.00;36.95;;;4.60;99.90;;;;;;4961470;29;20050;-71
2022/03/16 02:04:42;;;;;;;58.28;33.83;;;4.60;99.90;;;;;;4978582;28;20038;-73
2022/03/16 02:07:09;;;;;;;58.75;32.67;;;4.60;99.90;;;;;;4993920;28;20043;-70
2022/03/16 02:09:36;;;;;;;54.53;33.45;;;4.50;99.90;;;;;;4945464;29;20062;-72
2022/03/16 02:12:02;;;;;;;57.83;32.00;;;4.50;99.90;;;;;;4978275;28;20087;-71
2022/03/16 02:14:29;;;;;;;55.55;31.63;;;4.50;99.90;;;;;;4961961;29;20039;-71
2022/03/16 02:16:58;;;;;;;58.00;32.60;;;4.40;99.90;;;;;;4978291;29;20046;-71
2022/03/16 02:19:25;;;;;;;59.42;31.27;;;4.40;99.90;;;;;;4961369;29;20082;-71
2022/03/16 02:21:56;;;;;;;52.83;31.17;;;4.30;99.90;;;;;;4959696;29;20066;-71
2022/03/16 02:24:23;;;;;;;53.58;29.45;;;4.30;99.90;;;;;;4977076;29;20074;-71
2022/03/16 02:26:49;;;;;;;55.80;29.45;;;4.30;99.90;;;;;;4992974;28;20047;-71
2022/03/16 02:29:15;;;;;;;55.75;30.95;;;4.20;99.90;;;;;;4977827;29;20087;-71
2022/03/16 02:31:40;;;;;;;52.05;28.88;;;4.10;99.90;;;;;;4993733;28;20063;-70
2022/03/16 02:34:06;;;;;;;47.05;28.58;;;4.10;99.90;;;;;;4978131;29;20038;-71
2022/03/16 02:36:34;;;;;;;47.35;28.15;;;4.10;99.90;;;;;;4977722;29;20031;-73
2022/03/16 02:39:00;;;;;;;54.85;29.35;;;4.10;99.90;;;;;;4945116;29;20054;-70
2022/03/16 02:41:25;;;;;;;49.88;27.58;;;4.00;99.90;;;;;;4961142;29;20039;-70
2022/03/16 02:43:51;;;;;;;49.38;27.77;;;3.90;99.90;;;;;;4977840;29;20035;-70
2022/03/16 02:46:17;;;;;;;50.67;28.40;;;4.00;99.90;;;;;;4977896;29;20038;-71
2022/03/16 02:48:45;;;;;;;50.47;29.55;;;3.90;99.90;;;;;;4977409;29;20027;-71
2022/03/16 02:51:12;;;;;;;48.30;28.20;;;3.90;99.90;;;;;;4945389;29;20028;-73
2022/03/16 02:53:38;;;;;;;51.85;30.70;;;3.90;99.90;;;;;;4976839;28;20091;-74
2022/03/16 02:56:07;;;;;;;51.13;28.90;;;3.80;99.90;;;;;;4977153;29;20046;-72
2022/03/16 02:58:32;;;;;;;44.22;27.73;;;3.80;99.90;;;;;;4978303;29;20043;-71
2022/03/16 03:01:00;;;;;;;53.63;29.35;;;3.80;99.90;;;;;;4977328;29;20063;-71
2022/03/16 03:03:28;;;;;;;49.85;28.90;;;3.80;99.90;;;;;;4956887;29;20050;-71
2022/03/16 03:05:56;;;;;;;49.83;29.25;;;3.80;99.90;;;;;;4957547;29;20071;-71
2022/03/16 03:08:22;;;;;;;48.88;29.17;;;3.80;99.90;;;;;;4940744;29;20044;-72
2022/03/16 03:10:48;;;;;;;48.40;28.10;;;3.70;99.90;;;;;;4925440;29;20039;-71
2022/03/16 03:13:14;;;;;;;39.75;24.85;;;3.70;99.90;;;;;;4973142;29;20027;-72
2022/03/16 03:15:42;;;;;;;40.38;23.92;;;3.70;99.90;;;;;;4957168;29;20059;-71
2022/03/16 03:18:08;;;;;;;32.65;21.70;;;3.70;99.90;;;;;;4972670;29;20541;-71
2022/03/16 03:20:33;;;;;;;32.38;21.70;;;3.60;99.90;;;;;;4956860;29;20071;-70
2022/03/16 03:23:01;;;;;;;35.38;22.27;;;3.60;99.90;;;;;;4956713;29;20107;-73
2022/03/16 03:25:27;;;;;;;35.45;20.60;;;3.50;99.90;;;;;;4957418;29;20621;-70
2022/03/16 03:27:53;;;;;;;23.58;18.10;;;3.50;99.90;;;;;;4982597;28;20039;-70
2022/03/16 03:30:18;;;;;;;23.48;18.73;;;3.40;99.90;;;;;;4960899;29;20050;-70
2022/03/16 03:32:44;;;;;;;24.80;18.67;;;3.30;99.90;;;;;;4976482;29;20094;-72
2022/03/16 03:35:10;;;;;;;20.25;16.60;;;3.20;99.90;;;;;;4992062;28;20039;-71
2022/03/16 03:37:36;;;;;;;18.48;15.07;;;3.20;99.90;;;;;;4977205;28;20023;-71
2022/03/16 03:40:04;;;;;;;18.45;16.27;;;3.10;99.90;;;;;;4976721;29;20035;-71
2022/03/16 03:42:30;;;;;;;20.02;16.55;;;3.10;99.90;;;;;;4944739;29;20099;-71
2022/03/16 03:44:55;;;;;;;17.45;14.95;;;3.00;99.90;;;;;;4992255;28;20037;-73
2022/03/16 03:47:21;;;;;;;19.98;16.35;;;3.00;99.90;;;;;;4977280;29;20070;-71
2022/03/16 03:49:48;;;;;;;20.08;15.98;;;3.00;99.90;;;;;;4959885;29;20027;-71
2022/03/16 03:52:14;;;;;;;20.92;17.08;;;3.00;99.90;;;;;;4992267;28;20035;-70
2022/03/16 03:54:40;;;;;;;20.05;16.90;;;2.90;99.90;;;;;;4960177;29;20043;-71
2022/03/16 03:57:06;;;;;;;22.50;17.23;;;2.90;99.90;;;;;;4977059;28;20035;-71
2022/03/16 03:59:32;;;;;;;21.83;17.35;;;2.90;99.90;;;;;;4960250;29;20043;-72
2022/03/16 04:01:58;;;;;;;24.38;17.98;;;2.90;99.90;;;;;;4960511;29;20045;-70
2022/03/16 04:04:23;;;;;;;24.15;18.35;;;2.80;99.90;;;;;;4983370;28;20035;-71
2022/03/16 04:06:52;;;;;;;26.05;19.27;;;2.80;99.90;;;;;;4982790;28;20057;-72
2022/03/16 04:09:18;;;;;;;25.70;18.85;;;2.80;99.90;;;;;;4990200;28;20030;-71
2022/03/16 04:11:44;;;;;;;25.27;19.73;;;2.80;99.90;;;;;;4980310;29;20031;-71
2022/03/16 04:14:10;;;;;;;25.80;18.23;;;2.80;99.90;;;;;;4964090;29;20050;-71
2022/03/16 04:16:36;;;;;;;26.20;19.90;;;2.80;99.90;;;;;;4981004;29;20063;-70
2022/03/16 04:19:01;;;;;;;27.30;20.42;;;2.80;99.90;;;;;;4995308;28;20047;-71
2022/03/16 04:21:27;;;;;;;35.03;22.42;;;2.70;99.90;;;;;;4980390;29;20046;-71
2022/03/16 04:23:54;;;;;;;34.15;23.05;;;2.80;99.90;;;;;;4980206;29;20073;-71
2022/03/16 04:26:19;;;;;;;36.92;24.35;;;2.80;99.90;;;;;;4980086;28;20043;-72
2022/03/16 04:28:45;;;;;;;35.00;23.98;;;2.70;99.90;;;;;;4980057;29;20035;-71
2022/03/16 04:31:12;;;;;;;39.58;24.83;;;2.80;99.90;;;;;;4995184;28;20031;-71
2022/03/16 04:33:38;;;;;;;43.65;26.70;;;2.80;99.90;;;;;;4980180;29;20079;-71
2022/03/16 04:36:04;;;;;;;40.63;25.92;;;2.80;99.90;;;;;;4964286;29;20374;-71
2022/03/16 04:38:29;;;;;;;43.97;27.65;;;2.80;99.90;;;;;;4978787;28;20054;-70
2022/03/16 04:40:55;;;;;;;42.90;27.33;;;2.90;99.90;;;;;;4979916;29;20027;-71
2022/03/16 04:43:21;;;;;;;50.20;27.77;;;2.90;99.90;;;;;;4962814;29;20043;-70
2022/03/16 04:45:46;;;;;;;45.40;28.73;;;2.90;99.90;;;;;;4979844;29;20039;-70
2022/03/16 04:48:14;;;;;;;43.65;27.67;;;2.90;99.90;;;;;;4979798;29;20035;-71
2022/03/16 04:50:41;;;;;;;44.10;27.35;;;2.90;99.90;;;;;;4979330;28;20043;-70
2022/03/16 04:53:07;;;;;;;40.15;26.48;;;2.90;99.90;;;;;;4963159;29;20023;-70
2022/03/16 04:55:36;;;;;;;44.95;28.10;;;2.90;99.90;;;;;;4980417;28;20031;-71
2022/03/16 04:58:06;;;;;;;40.78;27.33;;;3.00;99.90;;;;;;4962852;29;20067;-71
2022/03/16 05:00:33;;;;;;;51.05;29.48;;;2.90;99.90;;;;;;4979548;29;20023;-71
2022/03/16 05:02:58;;;;;;;45.20;29.52;;;2.90;99.90;;;;;;4962352;29;20098;-71
2022/03/16 05:05:24;;;;;;;44.97;27.98;;;2.90;99.90;;;;;;4994800;28;20024;-71
2022/03/16 05:07:50;;;;;;;45.70;29.02;;;2.90;99.90;;;;;;4962688;29;20040;-71
2022/03/16 05:10:16;;;;;;;46.40;29.58;;;2.90;99.90;;;;;;4962063;29;20126;-71
2022/03/16 05:12:44;;;;;;;45.67;28.50;;;3.00;99.90;;;;;;4979379;28;20039;-71
2022/03/16 05:15:14;;;;;;;41.35;27.80;;;2.90;99.90;;;;;;4979277;29;20031;-70
2022/03/16 05:17:40;;;;;;;42.10;28.42;;;2.90;99.90;;;;;;4977140;28;20039;-71
2022/03/16 05:20:07;;;;;;;41.95;27.35;;;2.90;99.90;;;;;;4979139;29;20039;-71
2022/03/16 05:22:40;;;;;;;42.20;27.55;;;2.90;99.90;;;;;;4963141;29;20077;-71
2022/03/16 05:25:06;;;;;;;44.83;27.77;;;2.90;99.90;;;;;;4994123;28;20082;-72
2022/03/16 05:27:32;;;;;;;42.65;28.35;;;2.90;99.90;;;;;;4962316;29;20099;-72
2022/03/16 05:29:58;;;;;;;43.15;27.90;;;2.80;99.90;;;;;;4978712;29;20042;-71
2022/03/16 05:32:23;;;;;;;42.63;26.65;;;2.80;99.90;;;;;;4994095;28;20031;-72
2022/03/16 05:34:49;;;;;;;46.55;28.25;;;2.80;99.90;;;;;;4962381;29;20046;-72
2022/03/16 05:37:15;;;;;;;43.35;27.80;;;2.80;99.90;;;;;;4978367;29;20023;-70
2022/03/16 05:39:40;;;;;;;41.63;26.85;;;2.80;99.90;;;;;;4962883;29;20038;-72
2022/03/16 05:42:07;;;;;;;35.45;23.50;;;2.80;99.90;;;;;;4962359;29;20043;-71
2022/03/16 05:44:33;;;;;;;34.15;23.50;;;2.80;99.90;;;;;;4965063;29;20035;-70
2022/03/16 05:46:59;;;;;;;29.50;20.92;;;2.80;99.90;;;;;;4993946;28;20577;-71
2022/03/16 05:49:28;;;;;;;29.77;21.20;;;2.70;99.90;;;;;;4979797;29;20042;-71
2022/03/16 05:51:54;;;;;;;30.60;20.70;;;2.70;99.90;;;;;;4979501;28;20035;-71
2022/03/16 05:54:20;;;;;;;45.17;28.10;;;2.60;99.90;;;;;;4978884;29;20221;-70
2022/03/16 05:56:45;;;;;;;40.78;27.10;;;2.60;99.90;;;;;;4961971;29;20039;-72
2022/03/16 05:59:11;;;;;;;64.68;34.20;;;2.60;99.90;;;;;;4962147;29;20050;-71
2022/03/16 06:01:36;;;;;;;62.97;33.17;;;2.60;99.90;;;;;;4976950;29;20478;-70
2022/03/16 06:04:03;;;;;;;57.20;33.65;;;2.60;99.90;;;;;;4978467;29;20063;-71
2022/03/16 06:06:30;;;;;;;52.03;31.58;;;2.70;99.90;;;;;;4978517;29;20070;-71
2022/03/16 06:08:57;;;;;;;58.65;34.47;;;2.70;99.90;;;;;;4978441;29;20039;-70
2022/03/16 06:11:23;;;;;;;52.63;33.45;;;2.70;99.90;;;;;;4977947;29;20050;-71
2022/03/16 06:13:52;;;;;;;54.95;34.28;;;2.80;99.90;;;;;;4981413;28;20030;-71
2022/03/16 06:16:18;;;;;;;52.78;32.88;;;2.80;99.90;;;;;;4961427;29;20039;-71
2022/03/16 06:18:43;;;;;;;55.55;32.35;;;2.80;99.90;;;;;;4962173;29;20043;-71
2022/03/16 06:21:09;;;;;;;55.83;34.08;;;2.90;99.90;;;;;;4978405;29;20023;-71
2022/03/16 06:23:35;;;;;;;54.17;33.28;;;2.90;99.90;;;;;;4994100;28;20103;-72
2022/03/16 06:26:04;;;;;;;58.38;34.78;;;3.00;99.90;;;;;;4997373;28;20104;-70
2022/03/16 06:28:31;;;;;;;60.17;37.05;;;3.00;99.90;;;;;;4980604;28;20066;-72
2022/03/16 06:30:59;;;;;;;81.18;43.15;;;3.10;99.90;;;;;;4983683;28;20019;-72
2022/03/16 06:33:24;;;;;;;65.63;40.63;;;3.20;99.90;;;;;;4946131;29;20042;-71
2022/03/16 06:35:50;;;;;;;75.72;44.95;;;3.30;99.90;;;;;;4978213;29;20039;-72
2022/03/16 06:38:16;;;;;;;91.90;48.13;;;3.30;99.90;;;;;;4984824;28;20019;-71
2022/03/16 06:40:42;;;;;;;72.53;44.78;;;3.40;99.90;;;;;;4998145;28;20050;-71
2022/03/16 06:43:07;;;;;;;94.18;48.22;;;3.50;99.90;;;;;;4980785;28;20034;-71
2022/03/16 06:45:33;;;;;;;74.65;44.22;;;3.60;99.90;;;;;;4997427;28;20039;-71
2022/03/16 06:48:01;;;;;;;75.45;44.28;;;3.60;99.90;;;;;;4994227;28;20043;-71
2022/03/16 06:50:28;;;;;;;88.82;48.25;;;3.70;99.90;;;;;;4980260;28;20035;-73
2022/03/16 06:52:54;;;;;;;73.75;44.92;;;3.80;99.90;;;;;;4977927;28;20034;-71
2022/03/16 06:55:20;;;;;;;79.93;45.40;;;3.80;99.90;;;;;;4980258;28;20065;-71
2022/03/16 06:57:46;;;;;;;85.28;45.50;;;3.90;99.90;;;;;;4964263;28;20090;-73
2022/03/16 07:00:13;;;;;;;91.90;50.47;;;3.90;99.90;;;;;;4997161;28;20038;-73
2022/03/16 07:03:02;;;;;;;88.63;48.58;;;4.00;99.90;;;;;;4977739;28;20034;-72
2022/03/16 07:05:36;;;;;;;73.88;45.40;;;4.10;99.90;;;;;;4997188;28;20038;-71
2022/03/16 07:08:04;;;;;;;71.32;42.08;;;4.10;99.90;;;;;;4980546;28;20065;-71
2022/03/16 07:10:31;;;;;;;74.25;45.17;;;4.10;99.90;;;;;;4996517;28;20042;-72
2022/03/16 07:12:57;;;;;;;86.20;48.22;;;4.20;99.90;;;;;;4996778;28;20486;-73
2022/03/16 07:15:23;;;;;;;70.93;43.60;;;4.30;99.90;;;;;;4982575;28;20026;-72
2022/03/16 07:17:49;;;;;;;69.45;44.40;;;4.30;99.90;;;;;;4978001;29;20039;-72
2022/03/16 07:20:15;;;;;;;90.07;48.90;;;4.40;99.90;;;;;;4992636;28;20066;-71
2022/03/16 07:22:41;;;;;;;83.10;47.47;;;4.40;99.90;;;;;;4957516;29;20062;-71
2022/03/16 07:25:10;;;;;;;75.97;44.25;;;4.50;99.90;;;;;;4976625;29;20035;-72
2022/03/16 07:27:40;;;;;;;74.82;44.47;;;4.50;99.90;;;;;;4993163;28;20043;-72
2022/03/16 07:30:07;;;;;;;;;;;4.60;99.90;;;;;;4960895;29;20040;-72
2022/03/16 07:32:41;;;;;;;73.43;43.75;;;4.60;99.90;;;;;;4977647;29;19914;-72
2022/03/16 07:35:09;;;;;;;69.40;43.30;;;4.70;99.90;;;;;;4977597;28;20031;-72
2022/03/16 07:37:36;;;;;;;81.78;44.63;;;4.80;99.90;;;;;;4945107;29;20616;-74
2022/03/16 07:40:05;;;;;;;76.47;46.33;;;4.90;99.90;;;;;;4963684;29;20038;-72
2022/03/16 07:42:31;;;;;;;73.20;44.78;;;5.10;99.90;;;;;;4983755;28;20043;-72
2022/03/16 07:45:00;;;;;;;70.75;44.30;;;5.20;99.90;;;;;;4984030;28;20039;-71
2022/03/16 07:47:25;;;;;;;63.63;41.50;;;5.30;99.90;;;;;;4967402;29;20074;-73
2022/03/16 07:49:56;;;;;;;72.25;44.63;;;5.40;99.90;;;;;;5002965;28;20034;-72
2022/03/16 07:52:23;;;;;;;71.43;43.15;;;5.50;99.90;;;;;;4986489;28;20050;-71
2022/03/16 07:54:48;;;;;;;68.30;44.30;;;5.60;99.90;;;;;;5003862;28;20030;-72
2022/03/16 07:57:16;;;;;;;69.13;44.22;;;5.70;99.90;;;;;;4986900;28;20103;-72
2022/03/16 07:59:42;;;;;;;66.30;41.78;;;5.80;99.90;;;;;;5003671;28;20039;-74
2022/03/16 08:02:08;;;;;;;66.97;42.50;;;5.90;99.90;;;;;;4971189;28;20026;-72
2022/03/16 08:04:34;;;;;;;62.05;40.85;;;6.00;99.90;;;;;;4970654;28;20154;-73
2022/03/16 08:07:00;;;;;;;61.10;39.78;;;6.10;99.90;;;;;;4986564;28;20105;-72
2022/03/16 08:09:25;;;;;;;64.90;41.60;;;6.20;99.90;;;;;;4986775;28;20057;-72
2022/03/16 08:11:51;;;;;;;60.72;38.08;;;6.30;99.90;;;;;;4986641;28;20073;-73
2022/03/16 08:14:17;;;;;;;57.03;37.03;;;6.40;99.90;;;;;;5002889;28;20027;-72
2022/03/16 08:16:42;;;;;;;58.33;38.90;;;6.50;99.90;;;;;;4999885;28;20389;-73
2022/03/16 08:19:08;;;;;;;51.30;34.92;;;6.70;99.90;;;;;;5003359;28;20027;-74
2022/03/16 08:21:37;;;;;;;54.72;35.67;;;6.90;99.90;;;;;;5003161;28;20030;-74
2022/03/16 08:24:04;;;;;;;52.88;36.20;;;7.20;99.90;;;;;;5002964;28;20061;-72
2022/03/16 08:26:29;;;;;;;55.13;35.13;;;7.40;99.90;;;;;;5000553;28;20034;-72
2022/03/16 08:28:55;;;;;;;54.40;35.40;;;7.60;99.90;;;;;;4987012;28;20030;-72
2022/03/16 08:31:23;;;;;;;55.22;35.78;;;7.80;99.90;;;;;;4967198;29;20051;-75
2022/03/16 08:33:50;;;;;;;51.60;33.80;;;8.10;99.90;;;;;;4983617;29;20023;-73
2022/03/16 08:36:16;;;;;;;47.53;32.35;;;8.20;99.90;;;;;;4999671;28;20039;-73
2022/03/16 08:38:42;;;;;;;52.05;34.22;;;8.50;99.90;;;;;;4951670;29;20039;-73
2022/03/16 08:41:10;;;;;;;49.70;31.58;;;8.60;99.90;;;;;;4983658;28;20042;-75
2022/03/16 08:43:36;;;;;;;51.75;30.27;;;8.70;99.90;;;;;;4983721;29;20039;-75
2022/03/16 08:46:03;;;;;;;45.10;29.98;;;8.70;99.90;;;;;;4984972;28;20070;-74
2022/03/16 08:48:30;;;;;;;46.80;29.85;;;8.80;99.90;;;;;;4985223;29;20039;-76
2022/03/16 08:50:56;;;;;;;43.67;29.30;;;9.00;99.90;;;;;;4983552;28;20094;-74
2022/03/16 08:53:21;;;;;;;40.60;27.75;;;9.10;99.90;;;;;;4997479;28;20039;-73
2022/03/16 08:55:47;;;;;;;45.97;28.83;;;9.40;99.90;;;;;;4965658;29;20091;-73
2022/03/16 08:58:14;;;;;;;41.85;27.35;;;9.50;99.90;;;;;;4996696;28;20027;-73
2022/03/16 09:00:41;;;;;;;40.17;27.80;;;9.80;99.90;;;;;;4981563;28;20394;-73
2022/03/16 09:03:07;;;;;;;45.30;27.90;;;9.90;99.90;;;;;;4980729;29;20033;-75
2022/03/16 09:05:34;;;;;;;41.92;26.45;;;10.10;99.90;;;;;;4964681;29;20032;-77
2022/03/16 09:08:00;;;;;;;39.80;27.10;;;10.20;99.90;;;;;;4980957;29;20035;-73
2022/03/16 09:10:26;;;;;;;38.40;25.40;;;10.40;99.90;;;;;;4981964;29;20066;-73
2022/03/16 09:12:51;;;;;;;37.60;25.38;;;10.40;99.90;;;;;;4998021;28;20031;-75
2022/03/16 09:15:17;;;;;;;36.50;23.45;;;10.60;99.90;;;;;;4997703;28;20071;-73
2022/03/16 09:17:43;;;;;;;34.55;22.30;;;10.70;99.90;;;;;;4981839;29;20042;-74
2022/03/16 09:20:08;;;;;;;33.90;21.08;;;10.80;99.90;;;;;;4981737;28;20058;-73
2022/03/16 09:22:34;;;;;;;31.25;20.30;;;11.10;99.90;;;;;;4964914;29;20070;-74
2022/03/16 09:25:00;;;;;;;30.27;19.77;;;11.20;99.90;;;;;;4996690;28;20042;-73
2022/03/16 09:27:31;;;;;;;32.50;20.45;;;11.40;99.90;;;;;;4980870;29;20063;-74
2022/03/16 09:29:57;;;;;;;29.73;18.73;;;11.60;99.90;;;;;;4980922;28;20059;-74
2022/03/16 09:32:23;;;;;;;29.83;19.60;;;11.70;99.90;;;;;;4984165;28;20034;-73
2022/03/16 09:34:50;;;;;;;31.08;19.13;;;11.90;99.90;;;;;;4981209;28;20079;-74
2022/03/16 09:37:15;;;;;;;27.85;18.90;;;11.90;99.90;;;;;;4981654;28;20051;-74
2022/03/16 09:39:42;;;;;;;27.00;17.00;;;11.80;99.90;;;;;;4981352;29;20095;-75
2022/03/16 09:42:09;;;;;;;26.88;17.60;;;11.80;99.90;;;;;;4964742;29;20050;-74
2022/03/16 09:44:36;;;;;;;28.38;16.52;;;11.70;99.90;;;;;;4964806;28;20047;-73
2022/03/16 09:47:03;;;;;;;27.33;17.60;;;11.70;99.90;;;;;;4964942;29;20054;-74
2022/03/16 09:49:29;;;;;;;24.13;16.20;;;11.90;99.90;;;;;;4978341;29;20059;-74
2022/03/16 09:51:55;;;;;;;27.33;16.80;;;12.00;99.90;;;;;;4980848;29;20023;-73
2022/03/16 09:54:22;;;;;;;25.52;16.70;;;12.20;99.90;;;;;;4980851;29;20187;-74
2022/03/16 09:56:49;;;;;;;25.80;16.58;;;12.30;99.90;;;;;;4996507;28;20023;-74
2022/03/16 09:59:15;;;;;;;29.60;17.05;;;12.50;99.90;;;;;;4964658;29;20039;-74
2022/03/16 10:01:44;;;;;;;25.73;16.80;;;12.50;99.90;;;;;;4964539;29;20082;-74
2022/03/16 10:04:10;;;;;;;25.50;16.53;;;12.70;99.90;;;;;;4964228;29;20042;-75
2022/03/16 10:06:37;;;;;;;26.73;16.88;;;12.80;99.90;;;;;;4964578;28;20041;-74
2022/03/16 10:15:15;;;;;;;25.67;16.10;;;13.00;99.90;;;;;;4980749;29;20062;-75
2022/03/16 10:17:45;;;;;;;25.88;15.88;;;13.10;99.90;;;;;;4979845;29;20023;-75
2022/03/16 10:20:26;;;;;;;22.83;15.48;;;13.10;99.90;;;;;;4964216;29;20070;-75
2022/03/16 10:23:04;;;;;;;25.75;17.05;;;13.20;99.90;;;;;;4964119;29;20066;-73
2022/03/16 10:25:37;;;;;;;24.80;15.55;;;13.20;99.90;;;;;;4980838;28;20047;-75
2022/03/16 10:28:10;;;;;;;25.20;16.35;;;13.20;99.90;;;;;;4964173;29;20043;-76
2022/03/16 11:26:24;;;;;;;20.43;12.83;;;14.20;99.90;;;;;;4728871;23;20038;-74
2022/03/16 11:29:00;;;;;;;24.63;13.55;;;14.30;95.30;;;;;;4965747;28;20038;-74
2022/03/16 11:31:30;;;;;;;22.55;14.05;;;14.40;97.90;;;;;;4950394;28;20054;-72
2022/03/16 11:33:59;;;;;;;21.00;13.82;;;14.40;99.20;;;;;;4982248;28;20066;-74
2022/03/16 11:36:30;;;;;;;21.75;13.80;;;14.70;99.50;;;;;;4965554;28;20046;-75
2022/03/16 11:38:58;;;;;;;23.40;13.88;;;14.80;97.90;;;;;;4981491;28;20042;-74
2022/03/16 11:41:27;;;;;;;22.00;13.95;;;15.00;96.60;;;;;;4998272;28;20061;-75
2022/03/16 11:44:28;;;;;;;24.65;14.55;;;15.20;97.40;;;;;;4981581;28;20041;-74
2022/03/16 11:47:18;;;;;;;22.98;14.57;;;15.40;94.90;;;;;;4998617;28;20033;-74
2022/03/16 11:50:05;;;;;;;25.20;14.48;;;15.50;97.30;;;;;;4981704;28;20042;-74
2022/03/16 11:53:00;;;;;;;23.15;14.45;;;15.70;91.00;;;;;;4979093;28;20043;-75
2022/03/16 11:55:47;;;;;;;22.08;14.00;;;15.70;86.30;;;;;;4981543;28;20077;-75
2022/03/16 11:58:18;;;;;;;23.98;14.15;;;15.80;91.50;;;;;;4998312;28;20073;-74
2022/03/16 12:00:45;;;;;;;19.58;13.07;;;15.80;93.00;;;;;;4949893;28;20094;-74
2022/03/16 12:03:21;;;;;;;23.95;14.50;;;15.90;92.20;;;;;;4981879;28;20038;-75
2022/03/16 12:05:59;;;;;;;22.45;14.07;;;16.00;91.10;;;;;;4997863;28;20112;-74
2022/03/16 13:47:24;;;;;;;23.63;15.95;;;16.50;69.20;;;;;;4169497;27;20038;-73
2022/03/16 13:49:59;;;;;;;20.65;15.02;;;16.30;77.80;;;;;;4867125;29;20030;-76
2022/03/16 13:52:27;;;;;;;22.00;13.93;;;16.10;74.00;;;;;;4884573;29;20025;-72
2022/03/16 13:55:06;;;;;;;22.45;15.13;;;16.10;76.20;;;;;;4870100;29;20037;-72
2022/03/16 13:57:41;;;;;;;23.08;14.80;;;16.00;75.60;;;;;;4885327;29;20052;-73
2022/03/16 14:00:09;;;;;;;22.13;14.63;;;16.10;75.20;;;;;;4885699;29;20037;-73
2022/03/16 14:02:36;;;;;;;20.10;14.23;;;16.40;74.80;;;;;;4870716;29;20049;-73
2022/03/16 15:10:39;;;;;;;24.38;16.52;;;14.70;91.60;;;;;;4865259;23;20038;-75
2022/03/16 15:13:05;;;;;;;28.90;17.63;;;14.70;90.90;;;;;;4847230;29;20076;-75
2022/03/16 15:15:32;;;;;;;28.27;17.55;;;14.70;90.90;;;;;;4850853;29;20034;-75
2022/03/16 15:17:58;;;;;;;26.42;16.90;;;14.60;91.50;;;;;;4865311;29;20466;-75
2022/03/16 15:20:27;;;;;;;29.05;16.63;;;14.60;90.90;;;;;;4850652;29;20050;-75
2022/03/16 15:22:55;;;;;;;25.92;16.52;;;14.50;90.80;;;;;;4865292;29;20065;-73
2022/03/16 15:25:30;;;;;;;29.13;17.35;;;14.40;91.30;;;;;;4865404;29;20049;-75
2022/03/16 15:27:59;;;;;;;25.38;17.13;;;14.40;91.30;;;;;;4865394;29;20046;-74
2022/03/16 15:30:26;;;;;;;27.45;18.17;;;14.40;91.90;;;;;;4865577;29;20057;-74
2022/03/16 15:32:52;;;;;;;27.90;18.13;;;14.40;91.80;;;;;;4865675;29;20033;-75
2022/03/16 15:35:19;;;;;;;25.60;17.95;;;14.30;92.00;;;;;;4865717;29;20026;-75
2022/03/16 15:37:45;;;;;;;29.15;18.73;;;14.30;92.80;;;;;;4865157;29;20066;-74
2022/03/16 15:42:55;;;;;;;26.30;17.88;;;14.30;93.40;;;;;;4859257;29;20054;-74
2022/03/16 15:45:24;;;;;;;27.02;18.40;;;14.10;93.40;;;;;;4865461;29;20056;-76
2022/03/16 15:47:50;;;;;;;26.92;18.58;;;14.10;93.00;;;;;;4868305;29;20030;-74
2022/03/16 15:50:16;;;;;;;28.38;18.58;;;14.10;93.00;;;;;;4848129;29;20056;-74
2022/03/16 15:52:42;;;;;;;26.90;19.08;;;14.10;93.20;;;;;;4841416;29;20058;-75
2022/03/16 15:55:12;;;;;;;27.48;18.88;;;14.10;93.60;;;;;;4876711;29;20049;-74
2022/03/16 15:57:44;;;;;;;29.08;19.67;;;14.00;93.30;;;;;;4881302;29;20073;-76
2022/03/16 16:00:15;;;;;;;27.10;18.80;;;13.90;93.70;;;;;;4882570;29;20022;-75
2022/03/16 16:02:42;;;;;;;26.92;18.60;;;13.90;93.70;;;;;;4868614;29;20038;-76
2022/03/16 16:05:09;;;;;;;28.35;18.90;;;13.90;94.20;;;;;;4880578;29;20041;-76
2022/03/16 16:07:36;;;;;;;27.85;18.90;;;13.80;94.40;;;;;;4855082;29;20050;-76
2022/03/16 16:10:07;;;;;;;26.15;18.58;;;13.80;94.40;;;;;;4859240;29;20135;-75
2022/03/16 16:12:34;;;;;;;31.70;19.15;;;13.80;94.40;;;;;;4887685;29;20046;-77
2022/03/16 16:15:00;;;;;;;32.95;18.55;;;13.70;94.90;;;;;;4886878;29;20033;-77
2022/03/16 16:17:27;;;;;;;25.65;18.13;;;13.70;94.80;;;;;;4890681;29;20036;-76
2022/03/16 16:19:54;;;;;;;29.27;18.75;;;13.60;94.80;;;;;;4868381;29;20079;-75
2022/03/16 16:22:23;;;;;;;27.30;17.83;;;13.60;95.60;;;;;;4868591;29;20390;-77
2022/03/16 16:24:49;;;;;;;28.33;16.95;;;13.50;95.60;;;;;;4878247;29;20530;-75